Time;durP1;ratioP1;P1;durP2;ratioP2;P2;SDS_P1;SDS_P2;PMS_P1;PMS_P2;Temp;Humidity;BMP_temperature;BMP_pressure;BME280_temperature;BME280_humidity;BME280_pressure;Samples;Min_cycle;Max_cycle;Signal;HPM_P1;HPM_P2
2022/10/21 00:01:53;;;;;;;13.25;10.20;;;;;;;;;;5057036;28;20430;-67
2022/10/21 00:04:19;;;;;;;15.13;10.95;;;;;;;;;;5074194;28;20040;-66
2022/10/21 00:06:45;;;;;;;15.20;11.05;;;;;;;;;;5074656;28;20115;-65
2022/10/21 00:09:11;;;;;;;13.90;10.68;;;;;;;;;;5074289;28;20030;-65
2022/10/21 00:11:37;;;;;;;14.82;10.63;;;;;;;;;;5073976;28;20123;-66
2022/10/21 00:14:02;;;;;;;15.75;11.55;;;;;;;;;;5074042;28;20066;-66
2022/10/21 00:16:28;;;;;;;15.63;11.07;;;;;;;;;;5073753;28;20070;-65
2022/10/21 00:18:53;;;;;;;14.63;10.93;;;;;;;;;;5074452;28;20017;-65
2022/10/21 00:21:20;;;;;;;14.88;10.32;;;;;;;;;;5073808;28;20040;-65
2022/10/21 00:23:45;;;;;;;16.65;10.43;;;;;;;;;;5073753;28;20029;-65
2022/10/21 00:26:12;;;;;;;15.98;10.57;;;;;;;;;;5073669;28;20120;-66
2022/10/21 00:28:37;;;;;;;15.25;10.38;;;;;;;;;;5074316;28;20024;-65
2022/10/21 00:31:06;;;;;;;15.45;11.07;;;;;;;;;;5074246;28;20044;-65
2022/10/21 00:33:32;;;;;;;14.35;10.40;;;;;;;;;;5056195;28;20379;-65
2022/10/21 00:35:58;;;;;;;12.98;10.20;;;;;;;;;;5074691;28;20029;-67
2022/10/21 00:38:23;;;;;;;13.43;10.05;;;;;;;;;;5073870;28;20016;-67
2022/10/21 00:40:49;;;;;;;14.80;10.40;;;;;;;;;;5073932;28;20115;-67
2022/10/21 00:43:14;;;;;;;14.65;10.18;;;;;;;;;;5073853;28;20032;-67
2022/10/21 00:45:41;;;;;;;14.70;10.80;;;;;;;;;;5074186;28;20024;-67
2022/10/21 00:48:27;;;;;;;14.30;10.07;;;;;;;;;;5073789;28;20380;-67
2022/10/21 00:50:56;;;;;;;13.27;9.77;;;;;;;;;;5073847;28;20051;-67
2022/10/21 00:53:21;;;;;;;15.07;10.50;;;;;;;;;;5055784;28;20472;-67
2022/10/21 00:55:51;;;;;;;13.00;9.98;;;;;;;;;;5073772;28;20082;-67
2022/10/21 00:58:17;;;;;;;13.80;9.88;;;;;;;;;;5073814;28;20028;-67
2022/10/21 01:00:43;;;;;;;17.25;12.30;;;;;;;;;;5073815;28;20032;-67
2022/10/21 01:03:08;;;;;;;16.65;10.52;;;;;;;;;;5074258;28;20036;-67
2022/10/21 01:05:35;;;;;;;14.82;9.50;;;;;;;;;;5073738;28;20531;-67
2022/10/21 01:08:00;;;;;;;13.65;10.02;;;;;;;;;;5073672;28;20025;-67
2022/10/21 01:10:27;;;;;;;13.80;9.88;;;;;;;;;;5074025;28;20050;-67
2022/10/21 01:13:00;;;;;;;12.90;10.27;;;;;;;;;;5073262;28;20044;-67
2022/10/21 01:15:33;;;;;;;14.77;10.38;;;;;;;;;;5073602;28;20494;-67
2022/10/21 01:18:05;;;;;;;13.52;9.95;;;;;;;;;;5073557;28;20033;-67
2022/10/21 01:20:37;;;;;;;14.40;10.25;;;;;;;;;;5074150;28;20107;-67
2022/10/21 01:23:14;;;;;;;12.55;10.15;;;;;;;;;;5073435;28;20029;-67
2022/10/21 01:25:59;;;;;;;15.95;11.55;;;;;;;;;;5055901;28;20024;-67
2022/10/21 01:28:30;;;;;;;13.35;10.25;;;;;;;;;;5073377;28;20063;-67
2022/10/21 01:31:07;;;;;;;13.82;10.68;;;;;;;;;;5073525;28;20040;-67
2022/10/21 01:33:36;;;;;;;15.27;10.73;;;;;;;;;;5073476;28;20070;-67
2022/10/21 01:36:01;;;;;;;14.20;10.05;;;;;;;;;;5074551;28;20012;-67
2022/10/21 01:38:30;;;;;;;13.77;10.25;;;;;;;;;;5059412;28;20036;-67
2022/10/21 01:40:59;;;;;;;12.95;9.63;;;;;;;;;;5059222;28;20021;-67
2022/10/21 01:43:43;;;;;;;15.07;10.27;;;;;;;;;;5077365;28;20103;-66
2022/10/21 01:46:22;;;;;;;15.50;11.35;;;;;;;;;;5076827;28;20044;-66
2022/10/21 01:48:50;;;;;;;14.35;10.30;;;;;;;;;;5077769;28;20029;-66
2022/10/21 01:51:16;;;;;;;13.80;10.25;;;;;;;;;;5076924;28;20024;-66
2022/10/21 01:53:50;;;;;;;12.23;9.55;;;;;;;;;;5077075;28;20094;-66
2022/10/21 01:56:16;;;;;;;14.52;10.60;;;;;;;;;;5076868;28;20453;-67
2022/10/21 01:58:43;;;;;;;15.05;10.07;;;;;;;;;;5076980;28;20418;-66
2022/10/21 02:01:10;;;;;;;14.05;9.48;;;;;;;;;;5077332;28;20512;-66
2022/10/21 02:03:37;;;;;;;14.70;10.57;;;;;;;;;;5077463;28;20060;-67
2022/10/21 02:06:03;;;;;;;15.60;10.65;;;;;;;;;;5077286;28;20068;-66
2022/10/21 02:08:29;;;;;;;13.30;10.07;;;;;;;;;;5076683;28;20032;-67
2022/10/21 02:10:56;;;;;;;12.70;10.02;;;;;;;;;;5076580;28;20135;-68
2022/10/21 02:13:24;;;;;;;14.90;10.18;;;;;;;;;;5075973;28;20060;-67
2022/10/21 02:15:53;;;;;;;11.52;10.27;;;;;;;;;;5076794;28;20028;-67
2022/10/21 02:18:22;;;;;;;13.60;9.68;;;;;;;;;;5059180;28;20432;-67
2022/10/21 02:20:51;;;;;;;13.63;10.20;;;;;;;;;;5076340;28;20027;-67
2022/10/21 02:23:19;;;;;;;13.55;9.70;;;;;;;;;;5076981;28;20103;-68
2022/10/21 02:25:46;;;;;;;12.88;10.48;;;;;;;;;;5076972;28;20044;-68
2022/10/21 02:28:12;;;;;;;13.05;10.32;;;;;;;;;;5076597;28;20021;-68
2022/10/21 02:30:44;;;;;;;13.95;9.95;;;;;;;;;;5076220;28;20067;-68
2022/10/21 02:33:14;;;;;;;12.63;9.52;;;;;;;;;;5076161;28;20566;-68
2022/10/21 02:35:53;;;;;;;13.47;9.40;;;;;;;;;;5075968;28;20111;-68
2022/10/21 02:38:25;;;;;;;12.77;10.43;;;;;;;;;;5076682;28;20021;-67
2022/10/21 02:40:52;;;;;;;13.52;10.75;;;;;;;;;;5076101;28;20115;-67
2022/10/21 02:43:21;;;;;;;13.48;9.88;;;;;;;;;;5076151;28;20029;-67
2022/10/21 02:45:47;;;;;;;13.90;9.85;;;;;;;;;;5076033;28;20032;-67
2022/10/21 02:48:12;;;;;;;14.00;10.18;;;;;;;;;;5075870;28;20043;-66
2022/10/21 02:50:38;;;;;;;14.07;9.85;;;;;;;;;;5076042;28;20024;-66
2022/10/21 02:53:03;;;;;;;14.32;10.02;;;;;;;;;;5076282;28;20016;-67
2022/10/21 02:55:29;;;;;;;11.73;9.95;;;;;;;;;;5076484;28;20111;-67
2022/10/21 02:57:54;;;;;;;12.77;9.77;;;;;;;;;;5076567;28;20016;-67
2022/10/21 03:00:19;;;;;;;14.10;10.23;;;;;;;;;;5076491;28;20043;-67
2022/10/21 03:02:45;;;;;;;12.63;9.90;;;;;;;;;;5075623;28;20055;-67
2022/10/21 03:05:11;;;;;;;13.68;9.93;;;;;;;;;;5075701;28;20025;-67
2022/10/21 03:07:37;;;;;;;13.95;10.13;;;;;;;;;;5075569;28;20150;-67
2022/10/21 03:10:02;;;;;;;14.50;9.60;;;;;;;;;;5075484;28;20115;-67
2022/10/21 03:12:28;;;;;;;13.32;9.82;;;;;;;;;;5076058;28;20049;-67
2022/10/21 03:14:53;;;;;;;13.73;9.80;;;;;;;;;;5075378;28;20072;-67
2022/10/21 03:17:18;;;;;;;12.88;9.35;;;;;;;;;;5075438;28;20031;-68
2022/10/21 03:19:44;;;;;;;15.60;10.38;;;;;;;;;;5075410;28;20024;-68
2022/10/21 03:22:09;;;;;;;16.63;10.75;;;;;;;;;;5075542;28;20345;-66
2022/10/21 03:24:35;;;;;;;17.05;10.85;;;;;;;;;;5075340;28;20024;-66
2022/10/21 03:27:00;;;;;;;16.23;10.63;;;;;;;;;;5058028;28;20368;-66
2022/10/21 03:29:25;;;;;;;13.20;10.50;;;;;;;;;;5057091;28;20035;-66
2022/10/21 03:31:51;;;;;;;13.90;10.38;;;;;;;;;;5040369;28;20066;-68
2022/10/21 03:34:16;;;;;;;16.27;11.02;;;;;;;;;;5057378;28;20040;-68
2022/10/21 03:36:41;;;;;;;13.75;10.90;;;;;;;;;;5075076;28;20043;-68
2022/10/21 03:39:07;;;;;;;17.40;11.27;;;;;;;;;;5075240;28;20484;-68
2022/10/21 03:41:32;;;;;;;16.73;11.75;;;;;;;;;;5074990;28;20368;-67
2022/10/21 03:43:58;;;;;;;15.02;10.85;;;;;;;;;;5074922;28;20028;-67
2022/10/21 03:46:23;;;;;;;14.85;11.63;;;;;;;;;;5075022;28;20029;-67
2022/10/21 03:48:48;;;;;;;16.00;11.18;;;;;;;;;;5075032;28;20107;-67
2022/10/21 03:51:14;;;;;;;15.93;11.45;;;;;;;;;;5075096;28;20408;-67
2022/10/21 03:53:39;;;;;;;15.65;11.30;;;;;;;;;;5074264;28;20039;-67
2022/10/21 03:56:06;;;;;;;15.30;11.50;;;;;;;;;;5074615;28;20470;-67
2022/10/21 03:58:34;;;;;;;13.50;10.25;;;;;;;;;;5056044;28;20396;-66
2022/10/21 04:00:59;;;;;;;15.07;10.57;;;;;;;;;;5074443;28;20103;-66
2022/10/21 04:03:25;;;;;;;15.95;10.85;;;;;;;;;;5074482;28;20158;-66
2022/10/21 04:05:50;;;;;;;18.10;11.23;;;;;;;;;;5074585;28;20099;-67
2022/10/21 04:08:15;;;;;;;15.15;10.93;;;;;;;;;;5056458;28;20037;-65
2022/10/21 04:10:41;;;;;;;13.98;11.02;;;;;;;;;;5074399;28;20027;-66
2022/10/21 04:13:07;;;;;;;13.88;10.65;;;;;;;;;;5065271;28;20108;-66
2022/10/21 04:15:32;;;;;;;15.68;11.75;;;;;;;;;;5045399;28;20456;-66
2022/10/21 04:17:58;;;;;;;15.15;11.45;;;;;;;;;;5068008;28;20107;-68
2022/10/21 04:20:23;;;;;;;15.10;11.45;;;;;;;;;;5074535;28;20017;-67
2022/10/21 04:22:48;;;;;;;19.35;11.10;;;;;;;;;;5056170;28;20033;-66
2022/10/21 04:25:14;;;;;;;16.42;12.00;;;;;;;;;;5074137;28;20024;-66
2022/10/21 04:27:39;;;;;;;19.88;12.20;;;;;;;;;;5074492;28;20036;-66
2022/10/21 04:30:05;;;;;;;19.45;12.18;;;;;;;;;;5074506;28;20070;-66
2022/10/21 04:32:30;;;;;;;17.27;11.65;;;;;;;;;;5074310;28;20071;-66
2022/10/21 04:34:57;;;;;;;15.55;10.85;;;;;;;;;;5073344;28;20013;-66
2022/10/21 04:37:22;;;;;;;15.85;10.77;;;;;;;;;;5073890;28;20457;-66
2022/10/21 04:39:47;;;;;;;17.52;11.85;;;;;;;;;;5072497;28;20027;-66
2022/10/21 04:42:13;;;;;;;18.85;11.88;;;;;;;;;;5072449;28;20115;-66
2022/10/21 04:44:38;;;;;;;15.88;11.30;;;;;;;;;;5072597;28;20032;-66
2022/10/21 04:47:07;;;;;;;15.52;11.57;;;;;;;;;;5054442;28;20514;-66
2022/10/21 04:49:32;;;;;;;16.02;11.77;;;;;;;;;;5054370;28;20020;-66
2022/10/21 04:51:58;;;;;;;20.63;12.05;;;;;;;;;;5071725;28;20036;-67
2022/10/21 04:54:23;;;;;;;19.77;13.82;;;;;;;;;;5070822;28;20017;-67
2022/10/21 04:56:48;;;;;;;16.40;12.98;;;;;;;;;;5052744;28;20049;-65
2022/10/21 04:59:13;;;;;;;18.65;13.80;;;;;;;;;;5072580;28;20337;-66
2022/10/21 05:01:39;;;;;;;23.15;15.63;;;;;;;;;;5072911;28;20024;-66
2022/10/21 05:04:04;;;;;;;23.27;16.15;;;;;;;;;;5055386;28;20464;-66
2022/10/21 05:06:30;;;;;;;31.83;18.33;;;;;;;;;;5072647;28;20045;-66
2022/10/21 05:08:55;;;;;;;28.05;18.90;;;;;;;;;;5054506;28;20029;-66
2022/10/21 05:11:21;;;;;;;29.48;18.83;;;;;;;;;;5071300;28;20068;-66
2022/10/21 05:13:47;;;;;;;29.35;18.83;;;;;;;;;;5072386;28;20039;-66
2022/10/21 05:16:12;;;;;;;34.60;19.42;;;;;;;;;;5072404;28;20009;-66
2022/10/21 05:18:37;;;;;;;24.63;15.77;;;;;;;;;;5072092;28;20032;-66
2022/10/21 05:21:03;;;;;;;19.73;12.75;;;;;;;;;;5054417;28;20028;-66
2022/10/21 05:23:28;;;;;;;25.55;14.52;;;;;;;;;;5072163;28;20037;-66
2022/10/21 05:25:53;;;;;;;35.35;17.95;;;;;;;;;;5072397;28;20361;-66
2022/10/21 05:28:19;;;;;;;36.97;17.95;;;;;;;;;;5072129;28;20131;-66
2022/10/21 05:30:45;;;;;;;31.27;15.70;;;;;;;;;;5072903;28;20059;-66
2022/10/21 05:33:10;;;;;;;27.77;15.45;;;;;;;;;;5073544;28;20388;-66
2022/10/21 05:35:35;;;;;;;20.27;11.68;;;;;;;;;;5073223;28;20017;-66
2022/10/21 05:38:01;;;;;;;23.67;14.32;;;;;;;;;;5072826;28;20044;-66
2022/10/21 05:40:26;;;;;;;37.13;22.98;;;;;;;;;;5072531;28;20021;-65
2022/10/21 05:42:52;;;;;;;34.75;22.60;;;;;;;;;;5072342;28;20032;-66
2022/10/21 05:45:17;;;;;;;35.75;18.65;;;;;;;;;;5072931;28;20020;-65
2022/10/21 05:47:43;;;;;;;24.48;14.90;;;;;;;;;;5054652;28;20111;-65
2022/10/21 05:50:09;;;;;;;24.25;13.38;;;;;;;;;;5072523;28;20020;-65
2022/10/21 05:52:34;;;;;;;21.52;12.98;;;;;;;;;;5072832;28;20036;-65
2022/10/21 05:54:59;;;;;;;20.00;12.43;;;;;;;;;;5073625;28;20024;-66
2022/10/21 05:57:25;;;;;;;28.45;13.45;;;;;;;;;;5073101;28;20029;-65
2022/10/21 05:59:50;;;;;;;28.48;14.63;;;;;;;;;;5073335;28;20028;-65
2022/10/21 06:02:16;;;;;;;27.77;15.25;;;;;;;;;;5073046;28;20427;-65
2022/10/21 06:04:41;;;;;;;26.10;14.60;;;;;;;;;;5055452;28;20028;-65
2022/10/21 06:07:06;;;;;;;28.00;15.30;;;;;;;;;;5072969;28;20032;-65
2022/10/21 06:09:32;;;;;;;25.48;14.82;;;;;;;;;;5073257;28;20356;-65
2022/10/21 06:11:58;;;;;;;22.52;15.25;;;;;;;;;;5072916;28;20051;-65
2022/10/21 06:14:24;;;;;;;22.25;14.93;;;;;;;;;;5073107;28;20032;-65
2022/10/21 06:16:49;;;;;;;26.25;17.88;;;;;;;;;;5073148;28;20016;-65
2022/10/21 06:19:14;;;;;;;30.58;20.95;;;;;;;;;;5072858;28;20039;-65
2022/10/21 06:21:40;;;;;;;32.05;20.95;;;;;;;;;;5073536;28;20070;-65
2022/10/21 06:24:05;;;;;;;29.33;19.67;;;;;;;;;;5076391;28;20094;-65
2022/10/21 06:26:30;;;;;;;34.67;21.23;;;;;;;;;;5076353;28;20017;-65
2022/10/21 06:28:56;;;;;;;27.85;20.25;;;;;;;;;;5076585;28;20036;-65
2022/10/21 06:31:21;;;;;;;30.63;19.75;;;;;;;;;;5076559;28;20020;-65
2022/10/21 06:33:47;;;;;;;29.60;19.45;;;;;;;;;;5076164;28;20486;-65
2022/10/21 06:36:12;;;;;;;51.33;27.35;;;;;;;;;;5076495;28;20110;-65
2022/10/21 06:38:37;;;;;;;33.67;20.42;;;;;;;;;;5076441;28;20059;-65
2022/10/21 06:41:05;;;;;;;29.52;19.05;;;;;;;;;;5076142;28;20016;-65
2022/10/21 06:43:31;;;;;;;29.23;17.52;;;;;;;;;;5076308;28;20460;-65
2022/10/21 06:46:00;;;;;;;24.65;16.40;;;;;;;;;;5076291;28;20142;-65
2022/10/21 06:48:25;;;;;;;27.40;15.80;;;;;;;;;;5058022;28;20025;-65
2022/10/21 06:50:55;;;;;;;24.05;14.23;;;;;;;;;;5042181;28;20471;-65
2022/10/21 06:53:20;;;;;;;22.02;14.70;;;;;;;;;;5075844;28;20039;-65
2022/10/21 06:55:45;;;;;;;25.20;15.00;;;;;;;;;;5075875;28;20097;-65
2022/10/21 06:58:11;;;;;;;22.83;14.50;;;;;;;;;;5058517;28;20071;-65
2022/10/21 07:00:36;;;;;;;18.13;12.70;;;;;;;;;;5076312;28;20024;-65
2022/10/21 07:03:01;;;;;;;16.33;12.35;;;;;;;;;;5075681;28;20020;-65
2022/10/21 07:05:27;;;;;;;19.30;13.20;;;;;;;;;;5076234;28;20013;-65
2022/10/21 07:07:52;;;;;;;20.38;14.43;;;;;;;;;;5075609;28;20067;-65
2022/10/21 07:10:17;;;;;;;22.63;16.02;;;;;;;;;;5075734;28;20021;-65
2022/10/21 07:12:45;;;;;;;19.48;12.38;;;;;;;;;;5075300;28;20042;-65
2022/10/21 07:15:10;;;;;;;16.80;12.02;;;;;;;;;;5096202;28;20047;-65
2022/10/21 07:17:36;;;;;;;15.25;11.85;;;;;;;;;;5095651;28;20028;-65
2022/10/21 07:20:01;;;;;;;19.33;11.93;;;;;;;;;;5096157;28;20020;-65
2022/10/21 07:22:26;;;;;;;17.38;12.10;;;;;;;;;;5095585;28;20027;-65
2022/10/21 07:24:52;;;;;;;18.35;11.63;;;;;;;;;;5095531;28;20020;-65
2022/10/21 07:27:17;;;;;;;16.55;10.63;;;;;;;;;;5096062;28;20043;-65
2022/10/21 07:29:42;;;;;;;16.05;9.88;;;;;;;;;;5095409;28;20054;-65
2022/10/21 07:32:08;;;;;;;14.98;9.93;;;;;;;;;;5077377;28;20030;-65
2022/10/21 07:34:33;;;;;;;13.80;9.85;;;;;;;;;;5094573;28;20414;-65
2022/10/21 07:36:58;;;;;;;14.32;9.45;;;;;;;;;;5095829;28;20038;-65
2022/10/21 07:39:25;;;;;;;17.33;10.98;;;;;;;;;;5095257;28;20024;-66
2022/10/21 07:41:52;;;;;;;15.98;11.20;;;;;;;;;;5095433;28;20070;-66
2022/10/21 07:44:18;;;;;;;15.95;10.25;;;;;;;;;;5077067;28;20023;-66
2022/10/21 07:46:44;;;;;;;19.42;11.27;;;;;;;;;;5077886;28;20054;-66
2022/10/21 07:49:10;;;;;;;28.08;16.77;;;;;;;;;;5095030;28;20383;-66
2022/10/21 07:51:37;;;;;;;23.90;14.05;;;;;;;;;;5103670;22;20698;-65
2022/10/21 07:54:03;;;;;;;17.05;12.35;;;;;;;;;;5134558;22;20060;-64
2022/10/21 07:56:34;;;;;;;15.65;10.38;;;;;;;;;;5115619;22;20048;-63
2022/10/21 07:59:00;;;;;;;16.65;10.57;;;;;;;;;;5112502;22;20056;-91
2022/10/21 08:01:26;;;;;;;14.75;9.10;;;;;;;;;;5060956;28;20043;-93
2022/10/21 08:03:52;;;;;;;10.75;7.03;;;;;;;;;;5065026;28;20000;-91
2022/10/21 08:06:17;;;;;;;10.15;6.43;;;;;;;;;;5061653;28;20020;-93
2022/10/21 08:08:43;;;;;;;9.02;6.75;;;;;;;;;;5061021;28;20047;-94
2022/10/21 08:11:08;;;;;;;7.55;5.80;;;;;;;;;;5061273;28;20069;-92
2022/10/21 08:13:34;;;;;;;8.68;6.10;;;;;;;;;;5061158;28;20020;-91
2022/10/21 08:15:59;;;;;;;8.18;5.65;;;;;;;;;;5060675;28;20032;-93
2022/10/21 08:18:25;;;;;;;8.98;6.50;;;;;;;;;;5060864;28;20038;-92
2022/10/21 08:20:51;;;;;;;8.88;6.50;;;;;;;;;;5060727;28;20119;-93
2022/10/21 08:23:18;;;;;;;8.75;6.53;;;;;;;;;;5060901;28;20048;-92
2022/10/21 08:25:51;;;;;;;11.45;6.20;;;;;;;;;;5060774;28;20031;-93
2022/10/21 08:28:17;;;;;;;10.88;6.07;;;;;;;;;;5060363;28;20024;-94
2022/10/21 08:30:42;;;;;;;11.55;6.53;;;;;;;;;;5077405;28;20375;-93
2022/10/21 08:33:08;;;;;;;9.95;7.07;;;;;;;;;;5061356;28;20169;-94
2022/10/21 08:35:34;;;;;;;10.40;7.25;;;;;;;;;;5060556;28;20066;-94
2022/10/21 08:37:59;;;;;;;12.27;7.72;;;;;;;;;;5060539;28;20028;-91
2022/10/21 08:40:28;;;;;;;9.25;7.15;;;;;;;;;;5060331;28;20028;-93
2022/10/21 08:42:53;;;;;;;9.60;6.10;;;;;;;;;;5059920;28;20035;-92
2022/10/21 08:45:24;;;;;;;11.05;7.38;;;;;;;;;;5059943;28;20053;-93
2022/10/21 08:47:51;;;;;;;11.70;7.38;;;;;;;;;;5077031;28;20154;-93
2022/10/21 08:50:19;;;;;;;9.65;6.60;;;;;;;;;;5060202;28;20016;-95
2022/10/21 08:52:50;;;;;;;11.02;7.05;;;;;;;;;;5060209;28;20024;-93
2022/10/21 08:55:22;;;;;;;10.65;7.43;;;;;;;;;;5077381;28;20035;-94
2022/10/21 08:57:48;;;;;;;8.00;6.40;;;;;;;;;;5060569;28;20081;-92
2022/10/21 09:15:10;;;;;;;8.00;5.47;;;;;;;;;;5094689;28;20027;-95
2022/10/21 09:20:43;;;;;;;9.23;6.03;;;;;;;;;;5077290;28;20047;-94
2022/10/21 09:29:42;;;;;;;7.65;5.07;;;;;;;;;;5077163;28;20470;-94
2022/10/21 09:43:00;;;;;;;6.07;4.07;;;;;;;;;;5094834;28;20035;-96
2022/10/21 09:53:00;;;;;;;10.20;4.72;;;;;;;;;;5094531;28;20076;-95
2022/10/21 09:55:27;;;;;;;5.82;4.80;;;;;;;;;;5059732;28;20502;-95
2022/10/21 09:58:02;;;;;;;3.78;3.47;;;;;;;;;;5062496;28;20014;-95
2022/10/21 10:01:00;;;;;;;4.70;3.67;;;;;;;;;;5057238;28;21174;-95
2022/10/21 10:03:33;;;;;;;4.45;3.58;;;;;;;;;;5080025;28;20031;-96
2022/10/21 10:09:44;;;;;;;3.75;3.45;;;;;;;;;;5080038;28;20051;-96
2022/10/21 10:12:13;;;;;;;4.05;3.63;;;;;;;;;;5063594;28;20047;-95
2022/10/21 10:15:14;;;;;;;3.63;2.88;;;;;;;;;;5064285;28;20039;-96
2022/10/21 10:24:44;;;;;;;14.15;8.55;;;;;;;;;;5097770;28;20042;-95
2022/10/21 10:37:51;;;;;;;4.30;3.90;;;;;;;;;;5097760;28;20383;-95
2022/10/21 10:43:56;;;;;;;5.18;4.60;;;;;;;;;;5097531;28;20390;-94
2022/10/21 10:57:05;;;;;;;3.92;3.60;;;;;;;;;;5097161;28;20414;-95
2022/10/21 11:03:09;;;;;;;3.85;3.38;;;;;;;;;;5094854;28;20145;-95
2022/10/21 11:05:49;;;;;;;5.93;4.75;;;;;;;;;;5062432;28;20039;-94
2022/10/21 11:11:57;;;;;;;7.25;5.30;;;;;;;;;;5096812;28;20145;-95
2022/10/21 11:22:04;;;;;;;5.68;4.63;;;;;;;;;;5096770;28;20062;-95
2022/10/21 11:28:21;;;;;;;4.57;3.65;;;;;;;;;;5096709;28;20108;-93
2022/10/21 11:34:42;;;;;;;5.57;3.55;;;;;;;;;;5096476;28;20094;-95
2022/10/21 11:41:09;;;;;;;5.65;3.70;;;;;;;;;;5096484;28;20485;-96
2022/10/21 11:56:41;;;;;;;5.20;4.70;;;;;;;;;;5091966;28;20076;-65
2022/10/21 11:59:25;;;;;;;4.13;3.70;;;;;;;;;;5094444;28;20444;-66
2022/10/21 12:02:09;;;;;;;4.47;3.40;;;;;;;;;;5093565;28;20147;-66
2022/10/21 12:04:37;;;;;;;13.63;5.60;;;;;;;;;;5094776;28;20032;-65
2022/10/21 12:07:11;;;;;;;4.05;3.08;;;;;;;;;;5094423;28;20026;-66
2022/10/21 12:09:50;;;;;;;3.17;2.88;;;;;;;;;;5094444;28;20067;-66
2022/10/21 12:12:18;;;;;;;3.05;2.85;;;;;;;;;;5076459;28;20031;-66
2022/10/21 12:14:49;;;;;;;4.82;3.25;;;;;;;;;;5094521;28;20115;-66
2022/10/21 12:17:18;;;;;;;4.85;3.25;;;;;;;;;;5094239;28;20043;-66
2022/10/21 12:19:49;;;;;;;5.65;3.53;;;;;;;;;;5094181;28;20016;-66
2022/10/21 12:22:14;;;;;;;12.25;7.72;;;;;;;;;;5094137;28;20031;-66
2022/10/21 12:24:49;;;;;;;14.32;8.88;;;;;;;;;;5093849;28;20024;-66
2022/10/21 12:27:14;;;;;;;7.60;6.00;;;;;;;;;;5094687;28;20042;-66
2022/10/21 12:29:41;;;;;;;14.48;8.25;;;;;;;;;;5094132;28;20024;-66
2022/10/21 12:32:16;;;;;;;13.55;8.40;;;;;;;;;;5094018;28;20028;-66
2022/10/21 12:34:42;;;;;;;24.10;11.98;;;;;;;;;;5094143;28;20039;-66
2022/10/21 12:37:27;;;;;;;27.20;15.02;;;;;;;;;;5094517;28;20020;-67
2022/10/21 12:40:07;;;;;;;13.13;8.00;;;;;;;;;;5094023;28;20058;-65
2022/10/21 12:42:32;;;;;;;18.35;11.13;;;;;;;;;;5093855;28;20042;-66
2022/10/21 12:44:57;;;;;;;21.98;13.18;;;;;;;;;;5075970;28;20021;-66
2022/10/21 12:47:27;;;;;;;23.40;12.75;;;;;;;;;;5093754;28;20068;-66
2022/10/21 12:50:22;;;;;;;12.98;8.55;;;;;;;;;;5094278;28;20035;-66
2022/10/21 12:53:02;;;;;;;10.55;7.88;;;;;;;;;;5083582;28;20042;-66
2022/10/21 12:55:29;;;;;;;;;;;;;;;;;;5093835;28;20494;-66
2022/10/21 12:58:01;;;;;;;32.33;15.63;;;;;;;;;;5094314;28;19904;-66
2022/10/21 13:00:26;;;;;;;75.57;32.35;;;;;;;;;;5094606;28;20023;-66
2022/10/21 13:03:06;;;;;;;96.85;44.92;;;;;;;;;;5091936;28;20503;-66
2022/10/21 13:05:35;;;;;;;47.50;27.20;;;;;;;;;;5093136;28;20090;-67
2022/10/21 13:08:19;;;;;;;67.82;37.10;;;;;;;;;;5091742;28;20055;-66
2022/10/21 13:11:05;;;;;;;41.75;25.40;;;;;;;;;;5091997;28;20040;-65
2022/10/21 13:13:44;;;;;;;96.78;50.95;;;;;;;;;;5093016;28;20040;-66
2022/10/21 13:16:18;;;;;;;95.03;51.15;;;;;;;;;;5093573;28;20158;-66
2022/10/21 13:18:50;;;;;;;34.25;17.88;;;;;;;;;;5075577;28;20459;-66
2022/10/21 13:21:22;;;;;;;45.30;23.25;;;;;;;;;;5093923;28;20066;-66
2022/10/21 13:23:50;;;;;;;30.33;16.05;;;;;;;;;;5092729;28;20040;-67
2022/10/21 13:26:20;;;;;;;36.35;18.40;;;;;;;;;;5094176;28;20039;-66
2022/10/21 13:29:09;;;;;;;24.48;12.05;;;;;;;;;;5093903;28;20024;-66
2022/10/21 13:31:34;;;;;;;21.00;9.38;;;;;;;;;;5093897;28;20036;-66
2022/10/21 13:33:59;;;;;;;12.98;7.63;;;;;;;;;;5079526;28;20162;-66
2022/10/21 13:36:35;;;;;;;12.68;8.57;;;;;;;;;;5097670;28;20024;-66
2022/10/21 13:39:26;;;;;;;34.78;17.83;;;;;;;;;;5098207;28;20093;-66
2022/10/21 13:41:57;;;;;;;53.83;26.95;;;;;;;;;;5093985;28;20387;-66
2022/10/21 13:44:32;;;;;;;55.80;30.13;;;;;;;;;;5098136;28;20028;-66
2022/10/21 13:47:16;;;;;;;82.57;44.08;;;;;;;;;;5097762;28;20028;-66
2022/10/21 13:49:48;;;;;;;58.92;35.65;;;;;;;;;;5095797;28;20501;-66
2022/10/21 13:52:13;;;;;;;37.22;23.45;;;;;;;;;;5097359;28;20024;-65
2022/10/21 13:54:38;;;;;;;14.63;10.02;;;;;;;;;;5097037;28;20040;-66
2022/10/21 13:57:05;;;;;;;13.63;8.77;;;;;;;;;;5097660;28;20039;-66
2022/10/21 13:59:32;;;;;;;9.77;6.50;;;;;;;;;;5097491;28;20091;-64
2022/10/21 14:01:58;;;;;;;9.07;6.07;;;;;;;;;;5096624;28;20024;-65
2022/10/21 14:04:25;;;;;;;11.50;6.28;;;;;;;;;;5095795;28;20422;-65
2022/10/21 14:06:58;;;;;;;8.52;5.80;;;;;;;;;;5096900;28;20083;-64
2022/10/21 14:09:44;;;;;;;7.05;5.78;;;;;;;;;;5095535;28;20448;-64
2022/10/21 14:12:24;;;;;;;11.23;7.38;;;;;;;;;;5078125;28;20046;-64
2022/10/21 14:14:50;;;;;;;;;;;;;;;;;;5096894;28;20444;-64
2022/10/21 14:17:16;;;;;;;73.15;25.30;;;;;;;;;;5096655;28;19912;-64
2022/10/21 14:19:45;;;;;;;104.38;42.13;;;;;;;;;;5096525;28;20448;-65
2022/10/21 14:22:15;;;;;;;38.40;17.38;;;;;;;;;;5096648;28;20017;-64
2022/10/21 14:24:40;;;;;;;;;;;;;;;;;;5097008;28;20320;-65
2022/10/21 14:27:18;;;;;;;100.73;35.27;;;;;;;;;;5095221;28;20003;-65
2022/10/21 14:29:44;;;;;;;71.88;30.10;;;;;;;;;;5096117;28;20028;-64
2022/10/21 14:32:13;;;;;;;36.63;21.02;;;;;;;;;;5094570;28;20065;-64
2022/10/21 14:34:57;;;;;;;41.27;26.37;;;;;;;;;;5095064;28;20082;-64
2022/10/21 14:37:23;;;;;;;73.35;33.85;;;;;;;;;;5093789;28;20300;-64
2022/10/21 14:39:48;;;;;;;90.90;35.92;;;;;;;;;;5095198;28;20024;-64
2022/10/21 14:42:20;;;;;;;82.45;34.17;;;;;;;;;;5095262;28;20024;-64
2022/10/21 14:44:46;;;;;;;67.90;31.05;;;;;;;;;;5077104;28;20376;-65
2022/10/21 14:47:16;;;;;;;63.20;30.77;;;;;;;;;;5095387;28;20028;-64
2022/10/21 14:49:46;;;;;;;66.03;33.38;;;;;;;;;;5077080;28;20165;-65
2022/10/21 14:52:33;;;;;;;128.75;48.38;;;;;;;;;;5095193;28;20049;-66
2022/10/21 14:55:06;;;;;;;134.88;47.33;;;;;;;;;;5065832;28;20477;-65
2022/10/21 14:57:52;;;;;;;126.07;52.72;;;;;;;;;;5053303;28;20476;-65
2022/10/21 15:00:18;;;;;;;111.07;43.58;;;;;;;;;;5069970;28;20385;-64
2022/10/21 15:02:44;;;;;;;142.82;64.10;;;;;;;;;;5055020;28;20037;-64
2022/10/21 15:05:28;;;;;;;88.60;48.20;;;;;;;;;;5054716;28;20036;-65
2022/10/21 15:08:12;;;;;;;66.15;37.17;;;;;;;;;;5054638;28;20388;-64
2022/10/21 15:10:39;;;;;;;44.58;26.42;;;;;;;;;;5070034;28;20422;-65
2022/10/21 15:13:17;;;;;;;37.03;21.10;;;;;;;;;;5054603;28;20468;-64
2022/10/21 15:15:47;;;;;;;35.85;23.02;;;;;;;;;;5054280;28;20082;-64
2022/10/21 15:18:19;;;;;;;38.13;23.47;;;;;;;;;;5054421;28;20148;-64
2022/10/21 15:21:04;;;;;;;38.13;21.80;;;;;;;;;;5053226;28;20061;-64
2022/10/21 15:23:32;;;;;;;42.38;23.38;;;;;;;;;;5054239;28;20028;-64
2022/10/21 15:25:59;;;;;;;41.20;23.70;;;;;;;;;;5054721;28;20017;-64
2022/10/21 15:28:32;;;;;;;41.42;23.92;;;;;;;;;;5053996;28;20099;-64
2022/10/21 15:30:59;;;;;;;41.00;23.25;;;;;;;;;;5054541;28;20056;-64
2022/10/21 15:33:26;;;;;;;43.20;24.25;;;;;;;;;;5052842;28;20017;-64
2022/10/21 15:36:02;;;;;;;117.63;46.45;;;;;;;;;;5069385;28;20071;-64
2022/10/21 15:38:28;;;;;;;152.85;55.40;;;;;;;;;;5054295;28;20036;-64
2022/10/21 15:40:53;;;;;;;52.78;25.83;;;;;;;;;;5054047;28;20017;-67
2022/10/21 15:43:19;;;;;;;38.97;21.48;;;;;;;;;;5054049;28;20025;-64
2022/10/21 15:45:44;;;;;;;35.22;21.17;;;;;;;;;;5053759;28;20052;-64
2022/10/21 15:48:10;;;;;;;36.83;20.95;;;;;;;;;;5054039;28;20035;-64
2022/10/21 15:50:37;;;;;;;59.97;28.33;;;;;;;;;;5053647;28;20050;-64
2022/10/21 15:53:03;;;;;;;67.70;31.73;;;;;;;;;;5053764;28;20044;-65
2022/10/21 15:55:31;;;;;;;49.50;26.48;;;;;;;;;;5076303;28;20044;-64
2022/10/21 15:57:56;;;;;;;62.33;28.92;;;;;;;;;;5093869;28;20446;-65
2022/10/21 16:00:22;;;;;;;90.00;45.05;;;;;;;;;;5093681;28;20439;-64
2022/10/21 16:02:48;;;;;;;100.75;52.28;;;;;;;;;;5093589;28;20023;-65
2022/10/21 16:05:14;;;;;;;122.00;64.85;;;;;;;;;;5075766;28;20107;-65
2022/10/21 16:07:41;;;;;;;119.10;67.30;;;;;;;;;;5094033;28;20036;-65
2022/10/21 16:10:18;;;;;;;104.53;56.72;;;;;;;;;;5092441;28;20490;-65
2022/10/21 16:12:43;;;;;;;95.95;51.63;;;;;;;;;;5093716;28;20047;-65
2022/10/21 16:15:09;;;;;;;97.30;51.88;;;;;;;;;;5093552;28;20028;-65
2022/10/21 16:17:36;;;;;;;116.57;62.08;;;;;;;;;;5093595;28;20032;-66
2022/10/21 16:20:02;;;;;;;118.15;65.35;;;;;;;;;;5092403;28;20376;-65
2022/10/21 16:22:29;;;;;;;112.07;60.85;;;;;;;;;;5075440;28;20039;-65
2022/10/21 16:24:55;;;;;;;93.32;51.40;;;;;;;;;;5075350;28;20052;-65
2022/10/21 16:27:20;;;;;;;101.38;52.13;;;;;;;;;;5092145;28;20121;-65
2022/10/21 16:29:46;;;;;;;86.43;44.83;;;;;;;;;;5075354;28;20023;-65